createdAt,value
2018-07-20T00:02:06.355Z,101509.21
2018-07-20T00:04:34.751Z,101510.52
2018-07-20T00:07:03.134Z,101502.23
2018-07-20T00:09:31.628Z,101505.72
2018-07-20T00:11:59.994Z,101503.97
2018-07-20T00:14:28.379Z,101496.55
2018-07-20T00:16:56.775Z,101500.03
2018-07-20T00:19:25.173Z,101496.11
2018-07-20T00:21:53.546Z,101496.52
2018-07-20T00:24:21.928Z,101487.37
2018-07-20T00:26:50.347Z,101490.83
2018-07-20T00:29:18.710Z,101493.01
2018-07-20T00:31:47.106Z,101488.61
2018-07-20T00:34:15.470Z,101482.52
2018-07-20T00:36:43.875Z,101485.14
2018-07-20T00:39:12.283Z,101482.08
2018-07-20T00:41:41.011Z,101481.20
2018-07-20T00:44:09.387Z,101479.87
2018-07-20T00:46:37.782Z,101482.48
2018-07-20T00:49:06.342Z,101484.23
2018-07-20T00:51:34.746Z,101487.72
2018-07-20T00:54:03.118Z,101483.79
2018-07-20T00:56:31.518Z,101481.59
2018-07-20T00:58:59.886Z,101485.97
2018-07-20T01:01:28.274Z,101479.39
2018-07-20T01:03:56.662Z,101477.65
2018-07-20T01:06:25.066Z,101476.77
2018-07-20T01:08:53.430Z,101479.36
2018-07-20T01:11:21.823Z,101476.32
2018-07-20T01:13:50.191Z,101478.52
2018-07-20T01:16:18.646Z,101476.32
2018-07-20T01:18:47.018Z,101471.94
2018-07-20T01:21:15.411Z,101476.31
2018-07-20T01:23:43.771Z,101478.92
2018-07-20T01:26:12.179Z,101480.21
2018-07-20T01:28:40.548Z,101473.66
2018-07-20T01:31:09.146Z,101468.42
2018-07-20T01:33:37.514Z,101467.98
2018-07-20T01:36:05.894Z,101476.69
2018-07-20T01:38:34.302Z,101472.77
2018-07-20T01:41:02.690Z,101472.33
2018-07-20T01:43:31.062Z,101466.19
2018-07-20T01:45:59.446Z,101467.95
2018-07-20T01:48:27.826Z,101472.28
2018-07-20T01:50:56.222Z,101471.39
2018-07-20T01:53:24.590Z,101465.73
2018-07-20T01:55:52.977Z,101464.84
2018-07-20T01:58:21.338Z,101465.24
2018-07-20T02:00:49.726Z,101466.10
2018-07-20T02:03:18.094Z,101464.34
2018-07-20T02:05:46.494Z,101466.95
2018-07-20T02:08:14.870Z,101465.62
2018-07-20T02:10:43.335Z,101469.56
2018-07-20T02:13:11.702Z,101469.11
2018-07-20T02:15:40.118Z,101469.06
2018-07-20T02:18:08.502Z,101476.00
2018-07-20T02:20:36.882Z,101470.77
2018-07-20T02:23:05.286Z,101470.74
2018-07-20T02:25:33.661Z,101478.14
2018-07-20T02:28:02.066Z,101474.20
2018-07-20T02:30:30.442Z,101475.93
2018-07-20T02:32:58.835Z,101476.34
2018-07-20T02:35:27.212Z,101474.63
2018-07-20T02:37:55.616Z,101477.22
2018-07-20T02:40:24.005Z,101475.49
2018-07-20T02:42:52.610Z,101476.33
2018-07-20T02:45:20.990Z,101471.08
2018-07-20T02:47:49.386Z,101468.02
2018-07-20T02:50:17.771Z,101472.38
2018-07-20T02:52:46.171Z,101467.59
2018-07-20T02:55:14.547Z,101466.70
2018-07-20T02:57:42.959Z,101462.78
2018-07-20T03:00:11.342Z,101463.19
2018-07-20T03:02:39.741Z,101458.41
2018-07-20T03:05:08.114Z,101457.09
2018-07-20T03:07:36.510Z,101464.51
2018-07-20T03:10:05.298Z,101465.81
2018-07-20T03:12:33.695Z,101457.97
2018-07-20T03:15:02.072Z,101458.41
2018-07-20T03:17:30.522Z,101461.89
2018-07-20T03:19:58.986Z,101455.34
2018-07-20T03:22:27.402Z,101448.84
2018-07-20T03:24:55.785Z,101452.78
2018-07-20T03:27:24.195Z,101450.16
2018-07-20T03:29:52.571Z,101457.13
2018-07-20T03:32:22.661Z,101461.08
2018-07-20T03:34:51.042Z,101458.45
2018-07-20T03:37:19.442Z,101451.94
2018-07-20T03:39:47.806Z,101451.52
2018-07-20T03:42:16.210Z,101452.81
2018-07-20T03:44:44.582Z,101447.17
2018-07-20T03:47:13.134Z,101454.16
2018-07-20T03:49:41.506Z,101448.05
2018-07-20T03:52:09.934Z,101449.81
2018-07-20T03:54:38.301Z,101450.70
2018-07-20T03:57:06.754Z,101449.84
2018-07-20T03:59:35.130Z,101458.58
2018-07-20T04:02:03.545Z,101456.81
2018-07-20T04:04:31.912Z,101457.73
2018-07-20T04:07:00.305Z,101456.92
2018-07-20T04:09:28.678Z,101448.73
2018-07-20T04:11:57.078Z,101451.41
2018-07-20T04:14:25.605Z,101451.48
2018-07-20T04:16:54.034Z,101448.02
2018-07-20T04:19:22.423Z,101447.19
2018-07-20T04:21:50.790Z,101444.56
2018-07-20T04:24:19.200Z,101440.14
2018-07-20T04:26:47.574Z,101453.60
2018-07-20T04:29:16.094Z,101443.42
2018-07-20T04:31:44.570Z,101450.70
2018-07-20T04:34:12.970Z,101454.04
2018-07-20T04:36:41.338Z,101455.17
2018-07-20T04:39:11.662Z,101451.47
2018-07-20T04:41:40.509Z,101453.01
2018-07-20T04:44:08.919Z,101449.34
2018-07-20T04:46:37.386Z,101444.00
2018-07-20T04:49:05.802Z,101447.94
2018-07-20T04:51:34.350Z,101449.67
2018-07-20T04:54:03.058Z,101444.86
2018-07-20T04:56:31.433Z,101447.00
2018-07-20T04:58:59.830Z,101448.80
2018-07-20T05:01:29.682Z,101450.58
2018-07-20T05:03:58.079Z,101451.07
2018-07-20T05:06:26.463Z,101449.80
2018-07-20T05:08:54.845Z,101451.56
2018-07-20T05:11:23.244Z,101452.02
2018-07-20T05:13:51.630Z,101452.06
2018-07-20T05:16:20.570Z,101445.52
2018-07-20T05:18:48.975Z,101450.78
2018-07-20T05:21:17.466Z,101404.95
2018-07-20T05:23:45.862Z,101446.80
2018-07-20T05:26:14.229Z,101449.44
2018-07-20T05:28:42.618Z,101441.54
2018-07-20T05:31:11.000Z,101447.21
2018-07-20T05:33:39.398Z,101437.09
2018-07-20T05:36:07.782Z,101441.00
2018-07-20T05:38:36.177Z,101438.33
2018-07-20T05:41:04.746Z,101439.14
2018-07-20T05:43:33.139Z,101445.27
2018-07-20T05:46:01.506Z,101434.24
2018-07-20T05:48:29.899Z,101438.17
2018-07-20T05:50:58.278Z,101446.88
2018-07-20T05:53:26.709Z,101447.23
2018-07-20T05:55:55.074Z,101444.52
2018-07-20T05:58:23.467Z,101442.64
2018-07-20T06:00:51.837Z,101444.26
2018-07-20T06:03:20.240Z,101442.78
2018-07-20T06:05:48.602Z,101441.34
2018-07-20T06:08:16.995Z,101445.12
2018-07-20T06:10:45.367Z,101445.41
2018-07-20T06:13:13.761Z,101443.53
2018-07-20T06:15:42.155Z,101441.24
2018-07-20T06:18:10.554Z,101436.75
2018-07-20T06:20:38.926Z,101440.98
2018-07-20T06:23:07.328Z,101435.17
2018-07-20T06:25:35.702Z,101432.41
2018-07-20T06:28:04.070Z,101436.22
2018-07-20T06:30:32.575Z,101436.95
2018-07-20T06:33:00.953Z,101436.39
2018-07-20T06:35:29.341Z,101435.79
2018-07-20T06:37:57.714Z,101429.06
2018-07-20T06:40:26.130Z,101434.70
2018-07-20T06:42:54.794Z,101429.70
2018-07-20T06:45:23.226Z,101426.93
2018-07-20T06:47:51.782Z,101428.14
2018-07-20T06:50:20.217Z,101424.91
2018-07-20T06:52:49.027Z,101420.82
2018-07-20T06:55:17.432Z,101418.02
2018-07-20T06:57:46.015Z,101420.91
2018-07-20T07:00:14.417Z,101419.88
2018-07-20T07:02:42.786Z,101421.94
2018-07-20T07:05:11.675Z,101420.84
2018-07-20T07:07:40.050Z,101423.32
2018-07-20T07:10:09.039Z,101419.17
2018-07-20T07:12:37.417Z,101424.23
2018-07-20T07:15:06.446Z,101419.27
2018-07-20T07:17:34.830Z,101426.96
2018-07-20T07:20:03.242Z,101425.02
2018-07-20T07:22:31.618Z,101422.21
2018-07-20T07:25:00.010Z,101430.03
2018-07-20T07:27:28.377Z,101427.74
2018-07-20T07:29:56.789Z,101427.17
2018-07-20T07:32:25.158Z,101428.81
2018-07-20T07:34:53.557Z,101426.91
2018-07-20T07:37:21.935Z,101425.52
2018-07-20T07:39:50.325Z,101428.41
2018-07-20T07:42:18.777Z,101430.98
2018-07-20T07:44:47.101Z,101426.89
2018-07-20T07:47:15.462Z,101423.29
2018-07-20T07:49:43.857Z,101421.84
2018-07-20T07:52:12.221Z,101423.91
2018-07-20T07:54:40.663Z,101421.61
2018-07-20T07:57:09.027Z,101414.44
2018-07-20T07:59:37.418Z,101416.91
2018-07-20T08:02:06.038Z,101415.42
2018-07-20T08:04:34.457Z,101408.25
2018-07-20T08:07:02.823Z,101408.09
2018-07-20T08:09:31.214Z,101416.34
2018-07-20T08:11:59.591Z,101414.86
2018-07-20T08:14:27.990Z,101408.04
2018-07-20T08:16:56.386Z,101408.67
2018-07-20T08:19:24.783Z,101415.12
2018-07-20T08:21:53.154Z,101411.45
2018-07-20T08:24:21.530Z,101408.34
2018-07-20T08:26:49.984Z,101406.02
2018-07-20T08:29:18.362Z,101403.23
2018-07-20T08:31:46.750Z,101405.28
2018-07-20T08:34:15.130Z,101405.98
2018-07-20T08:36:43.525Z,101398.74
2018-07-20T08:39:11.918Z,101400.72
2018-07-20T08:41:40.343Z,101399.22
2018-07-20T08:44:08.737Z,101399.47
2018-07-20T08:46:37.187Z,101404.99
2018-07-20T08:49:05.555Z,101403.55
2018-07-20T08:51:33.941Z,101399.97
2018-07-20T08:54:02.369Z,101399.97
2018-07-20T08:56:30.778Z,101402.23
2018-07-20T08:58:59.183Z,101404.02
2018-07-20T09:01:27.602Z,101398.75
2018-07-20T09:03:55.978Z,101400.55
2018-07-20T09:06:24.374Z,101398.83
2018-07-20T09:08:52.745Z,101395.75
2018-07-20T09:11:21.142Z,101395.24
2018-07-20T09:13:49.628Z,101399.15
2018-07-20T09:16:18.626Z,101394.56
2018-07-20T09:18:47.186Z,101392.58
2018-07-20T09:21:15.578Z,101392.79
2018-07-20T09:23:43.951Z,101387.69
2018-07-20T09:26:12.338Z,101388.39
2018-07-20T09:28:40.794Z,101390.47
2018-07-20T09:31:09.183Z,101387.31
2018-07-20T09:33:37.558Z,101383.29
2018-07-20T09:36:05.957Z,101385.32
2018-07-20T09:38:34.321Z,101380.76
2018-07-20T09:41:02.799Z,101379.90
2018-07-20T09:43:31.199Z,101383.30
2018-07-20T09:45:59.588Z,101380.56
2018-07-20T09:48:27.958Z,101374.83
2018-07-20T09:50:56.347Z,101380.72
2018-07-20T09:53:24.714Z,101376.54
2018-07-20T09:55:53.131Z,101374.19
2018-07-20T09:58:21.556Z,101373.59
2018-07-20T10:00:50.885Z,101380.98
2018-07-20T10:03:20.162Z,101374.73
2018-07-20T10:05:48.878Z,101374.56
2018-07-20T10:08:18.254Z,101370.93
2018-07-20T10:10:46.858Z,101373.08
2018-07-20T10:13:15.262Z,101369.83
2018-07-20T10:15:43.676Z,101371.06
2018-07-20T10:18:12.050Z,101375.84
2018-07-20T10:20:40.466Z,101367.01
2018-07-20T10:23:08.834Z,101367.31
2018-07-20T10:25:37.218Z,101359.22
2018-07-20T10:28:05.632Z,101359.98
2018-07-20T10:30:34.065Z,101356.27
2018-07-20T10:33:02.443Z,101362.61
2018-07-20T10:35:30.827Z,101357.17
2018-07-20T10:37:59.226Z,101355.33
2018-07-20T10:40:28.320Z,101351.17
2018-07-20T10:42:58.254Z,101349.61
2018-07-20T10:45:27.010Z,101341.94
2018-07-20T10:47:55.722Z,101346.69
2018-07-20T10:50:24.099Z,101341.76
2018-07-20T10:52:52.493Z,101340.90
2018-07-20T10:55:20.905Z,101342.23
2018-07-20T10:57:49.446Z,101337.17
2018-07-20T11:00:17.833Z,101337.46
2018-07-20T11:02:46.513Z,101341.40
2018-07-20T11:05:14.942Z,101335.56
2018-07-20T11:07:43.362Z,101341.09
2018-07-20T11:10:11.764Z,101340.91
2018-07-20T11:12:40.172Z,101344.50
2018-07-20T11:15:08.550Z,101333.16
2018-07-20T11:17:36.961Z,101324.05
2018-07-20T11:20:06.081Z,101328.23
2018-07-20T11:22:34.469Z,101339.16
2018-07-20T11:25:02.857Z,101327.38
2018-07-20T11:27:31.282Z,101325.19
2018-07-20T11:29:59.656Z,101327.84
2018-07-20T11:32:28.050Z,101328.52
2018-07-20T11:34:56.440Z,101325.28
2018-07-20T11:37:24.841Z,101319.02
2018-07-20T11:39:53.201Z,101322.77
2018-07-20T11:42:21.814Z,101328.70
2018-07-20T11:44:50.182Z,101314.39
2018-07-20T11:47:18.574Z,101314.67
2018-07-20T11:49:46.942Z,101310.59
2018-07-20T11:52:15.335Z,101315.25
2018-07-20T11:54:43.706Z,101314.72
2018-07-20T11:57:12.099Z,101312.80
2018-07-20T11:59:40.526Z,101314.23
2018-07-20T12:02:08.933Z,101321.35
2018-07-20T12:04:37.385Z,101312.36
2018-07-20T12:07:05.774Z,101302.03
2018-07-20T12:09:34.145Z,101306.30
2018-07-20T12:12:02.559Z,101303.97
2018-07-20T12:14:30.929Z,101311.95
2018-07-20T12:16:59.353Z,101309.67
2018-07-20T12:19:27.732Z,101307.75
2018-07-20T12:21:56.146Z,101307.11
2018-07-20T12:24:24.525Z,101314.48
2018-07-20T12:26:52.914Z,101313.89
2018-07-20T12:29:21.630Z,101306.81
2018-07-20T12:31:50.002Z,101300.09
2018-07-20T12:34:18.426Z,101305.69
2018-07-20T12:36:46.801Z,101300.54
2018-07-20T12:39:15.204Z,101293.66
2018-07-20T12:41:43.698Z,101296.98
2018-07-20T12:44:12.094Z,101296.83
2018-07-20T12:46:40.609Z,101294.64
2018-07-20T12:49:09.017Z,101298.63
2018-07-20T12:51:37.410Z,101302.09
2018-07-20T12:54:05.839Z,101299.88
2018-07-20T12:56:34.218Z,101302.63
2018-07-20T12:59:02.677Z,101298.37
2018-07-20T13:01:31.027Z,101287.92
2018-07-20T13:03:59.425Z,101294.80
2018-07-20T13:06:27.803Z,101296.37
2018-07-20T13:08:56.206Z,101291.78
2018-07-20T13:11:24.587Z,101287.08
2018-07-20T13:13:52.986Z,101287.63
2018-07-20T13:16:21.391Z,101288.16
2018-07-20T13:18:49.794Z,101281.27
2018-07-20T13:21:18.172Z,101284.37
2018-07-20T13:23:46.596Z,101289.70
2018-07-20T13:26:14.978Z,101280.85
2018-07-20T13:28:43.381Z,101274.19
2018-07-20T13:31:11.753Z,101283.31
2018-07-20T13:33:40.159Z,101278.31
2018-07-20T13:36:08.566Z,101280.47
2018-07-20T13:38:37.069Z,101274.52
2018-07-20T13:41:05.443Z,101268.60
2018-07-20T13:43:33.862Z,101265.46
2018-07-20T13:46:02.258Z,101267.12
2018-07-20T13:48:30.658Z,101259.98
2018-07-20T13:50:59.034Z,101266.11
2018-07-20T13:53:27.442Z,101263.39
2018-07-20T13:55:55.810Z,101260.72
2018-07-20T13:58:24.250Z,101256.73
2018-07-20T14:00:52.610Z,101263.06
2018-07-20T14:03:21.019Z,101256.08
2018-07-20T14:05:49.395Z,101248.62
2018-07-20T14:08:17.785Z,101250.48
2018-07-20T14:10:46.206Z,101251.02
2018-07-20T14:13:14.614Z,101256.44
2018-07-20T14:15:43.010Z,101251.17
2018-07-20T14:18:11.439Z,101248.09
2018-07-20T14:20:40.189Z,101241.38
2018-07-20T14:23:08.574Z,101242.55
2018-07-20T14:25:36.991Z,101236.31
2018-07-20T14:28:05.406Z,101249.48
2018-07-20T14:30:33.814Z,101238.28
2018-07-20T14:33:02.190Z,101235.62
2018-07-20T14:35:30.595Z,101234.29
2018-07-20T14:37:58.978Z,101240.86
2018-07-20T14:40:27.413Z,101231.95
2018-07-20T14:42:55.813Z,101234.77
2018-07-20T14:45:24.210Z,101230.50
2018-07-20T14:47:52.581Z,101231.45
2018-07-20T14:50:20.986Z,101223.52
2018-07-20T14:52:49.363Z,101228.47
2018-07-20T14:55:17.763Z,101229.65
2018-07-20T14:57:46.138Z,101225.97
2018-07-20T15:00:14.551Z,101220.97
2018-07-20T15:02:42.987Z,101216.02
2018-07-20T15:05:11.405Z,101215.55
2018-07-20T15:07:39.791Z,101225.77
2018-07-20T15:10:08.198Z,101220.02
2018-07-20T15:12:36.579Z,101220.49
2018-07-20T15:15:05.625Z,101219.70
2018-07-20T15:17:34.028Z,101224.64
2018-07-20T15:20:02.423Z,101221.50
2018-07-20T15:22:30.790Z,101213.98
2018-07-20T15:24:59.182Z,101214.58
2018-07-20T15:27:27.554Z,101214.67
2018-07-20T15:29:55.937Z,101220.00
2018-07-20T15:32:24.304Z,101206.39
2018-07-20T15:34:52.726Z,101211.06
2018-07-20T15:37:21.101Z,101210.04
2018-07-20T15:39:49.502Z,101208.38
2018-07-20T15:42:17.893Z,101204.92
2018-07-20T15:44:46.290Z,101211.64
2018-07-20T15:47:14.730Z,101209.39
2018-07-20T15:49:43.090Z,101211.25
2018-07-20T15:54:39.898Z,101205.78
2018-07-20T15:57:08.610Z,101211.91
2018-07-20T15:59:37.047Z,101209.89
2018-07-20T16:02:05.881Z,101208.47
2018-07-20T16:04:34.269Z,101212.25
2018-07-20T16:07:02.654Z,101209.67
2018-07-20T16:09:31.051Z,101206.59
2018-07-20T16:11:59.438Z,101206.13
2018-07-20T16:14:27.841Z,101205.74
2018-07-20T16:16:56.365Z,101206.59
2018-07-20T16:19:24.798Z,101215.92
2018-07-20T16:21:53.170Z,101215.92
2018-07-20T16:24:21.562Z,101216.55
2018-07-20T16:26:49.953Z,101209.92
2018-07-20T16:29:18.366Z,101214.33
2018-07-20T16:31:46.785Z,101207.55
2018-07-20T16:34:15.170Z,101218.50
2018-07-20T16:36:43.655Z,101215.30
2018-07-20T16:39:12.039Z,101214.95
2018-07-20T16:41:40.430Z,101218.23
2018-07-20T16:44:08.805Z,101218.67
2018-07-20T16:46:37.203Z,101213.25
2018-07-20T16:49:05.591Z,101222.47
2018-07-20T16:51:33.985Z,101214.94
2018-07-20T16:54:02.354Z,101215.49
2018-07-20T16:56:30.798Z,101210.52
2018-07-20T16:58:59.174Z,101220.09
2018-07-20T17:01:27.710Z,101220.16
2018-07-20T17:03:56.110Z,101218.36
2018-07-20T17:06:24.582Z,101223.83
2018-07-20T17:08:52.959Z,101222.42
2018-07-20T17:11:21.378Z,101216.95
2018-07-20T17:13:50.105Z,101215.27
2018-07-20T17:16:18.839Z,101223.98
2018-07-20T17:18:47.378Z,101211.86
2018-07-20T17:21:15.855Z,101215.37
2018-07-20T17:23:44.318Z,101214.48
2018-07-20T17:26:12.721Z,101215.67
2018-07-20T17:28:41.130Z,101214.05
2018-07-20T17:31:09.526Z,101219.25
2018-07-20T17:33:38.053Z,101219.39
2018-07-20T17:36:06.702Z,101223.98
2018-07-20T17:38:35.101Z,101219.52
2018-07-20T17:41:03.858Z,101219.53
2018-07-20T17:43:32.233Z,101218.80
2018-07-20T17:46:00.642Z,101214.94
2018-07-20T17:48:29.023Z,101216.58
2018-07-20T17:50:57.418Z,101223.64
2018-07-20T17:53:25.793Z,101225.19
2018-07-20T17:55:54.195Z,101219.47
2018-07-20T17:58:22.567Z,101218.98
2018-07-20T18:00:52.966Z,101219.23
2018-07-20T18:03:21.362Z,101222.95
2018-07-20T18:05:49.766Z,101221.23
2018-07-20T18:08:18.142Z,101225.27
2018-07-20T18:10:46.707Z,101188.39
2018-07-20T18:13:15.082Z,101222.75
2018-07-20T18:15:43.529Z,101222.47
2018-07-20T18:18:11.903Z,101223.86
2018-07-20T18:20:40.278Z,101217.26
2018-07-20T18:23:08.666Z,101217.22
2018-07-20T18:25:37.037Z,101218.50
2018-07-20T18:28:05.449Z,101219.31
2018-07-20T18:30:33.829Z,101218.44
2018-07-20T18:33:02.366Z,101214.86
2018-07-20T18:35:30.739Z,101215.65
2018-07-20T18:37:59.139Z,101217.38
2018-07-20T18:40:27.529Z,101217.23
2018-07-20T18:42:55.930Z,101209.66
2018-07-20T18:45:24.321Z,101210.94
2018-07-20T18:47:52.714Z,101214.44
2018-07-20T18:50:21.092Z,101209.08
2018-07-20T18:52:49.532Z,101211.23
2018-07-20T18:55:17.923Z,101204.90
2018-07-20T18:57:46.326Z,101211.34
2018-07-20T19:00:14.699Z,101205.97
2018-07-20T19:02:43.086Z,101201.31
2018-07-20T19:05:11.465Z,101209.97
2018-07-20T19:07:39.862Z,101211.53
2018-07-20T19:10:08.256Z,101207.83
2018-07-20T19:12:36.686Z,101212.03
2018-07-20T19:15:05.562Z,101211.40
2018-07-20T19:17:34.176Z,101214.73
2018-07-20T19:20:02.595Z,101213.61
2018-07-20T19:22:31.179Z,101212.51
2018-07-20T19:24:59.558Z,101213.62
2018-07-20T19:27:27.941Z,101213.37
2018-07-20T19:29:56.319Z,101213.59
2018-07-20T19:32:24.718Z,101214.66
2018-07-20T19:34:53.086Z,101221.02
2018-07-20T19:37:21.483Z,101216.37
2018-07-20T19:39:49.935Z,101214.80
2018-07-20T19:42:18.280Z,101222.00
2018-07-20T19:44:46.654Z,101218.67
2018-07-20T19:47:15.048Z,101220.59
2018-07-20T19:49:43.456Z,101213.78
2018-07-20T19:52:11.858Z,101220.09
2018-07-20T19:54:40.240Z,101216.72
2018-07-20T19:57:08.649Z,101222.17
2018-07-20T19:59:37.023Z,101217.02
2018-07-20T20:02:05.462Z,101225.50
2018-07-20T20:04:33.842Z,101212.48
2018-07-20T20:07:02.269Z,101220.97
2018-07-20T20:09:30.643Z,101227.28
2018-07-20T20:11:59.042Z,101225.23
2018-07-20T20:14:27.422Z,101229.78
2018-07-20T20:16:55.866Z,101227.30
2018-07-20T20:19:24.247Z,101225.28
2018-07-20T20:21:52.646Z,101231.53
2018-07-20T20:24:21.042Z,101235.64
2018-07-20T20:26:49.413Z,101229.61
2018-07-20T20:29:17.842Z,101232.39
2018-07-20T20:31:46.210Z,101234.25
2018-07-20T20:34:14.615Z,101233.48
2018-07-20T20:36:42.995Z,101231.80
2018-07-20T20:39:12.876Z,101228.39
2018-07-20T20:41:41.326Z,101228.98
2018-07-20T20:44:10.966Z,101231.72
2018-07-20T20:46:40.995Z,101229.67
2018-07-20T20:49:09.448Z,101238.50
2018-07-20T20:51:37.826Z,101239.52
2018-07-20T20:54:06.956Z,101240.10
2018-07-20T20:56:35.416Z,101239.84
2018-07-20T20:59:03.920Z,101236.94
2018-07-20T21:01:32.256Z,101237.94
2018-07-20T21:04:00.659Z,101236.70
2018-07-20T21:06:29.039Z,101239.44
2018-07-20T21:08:57.443Z,101239.05
2018-07-20T21:11:25.830Z,101238.66
2018-07-20T21:13:54.238Z,101239.63
2018-07-20T21:16:22.642Z,101232.25
2018-07-20T21:18:51.049Z,101238.45
2018-07-20T21:21:19.434Z,101235.88
2018-07-20T21:23:47.834Z,101238.13
2018-07-20T21:26:16.222Z,101242.12
2018-07-20T21:28:44.626Z,101250.05
2018-07-20T21:31:13.003Z,101243.12
2018-07-20T21:33:41.406Z,101240.98
2018-07-20T21:36:09.783Z,101243.67
2018-07-20T21:38:38.194Z,101244.60
2018-07-20T21:41:06.598Z,101242.07
2018-07-20T21:43:34.998Z,101247.39
2018-07-20T21:46:03.406Z,101248.75
2018-07-20T21:48:31.802Z,101247.91
2018-07-20T21:51:00.174Z,101243.59
2018-07-20T21:53:28.572Z,101245.82
2018-07-20T21:55:56.937Z,101252.41
2018-07-20T21:58:25.330Z,101251.17
2018-07-20T22:00:53.710Z,101251.64
2018-07-20T22:03:22.117Z,101241.62
2018-07-20T22:05:50.490Z,101242.94
2018-07-20T22:08:18.914Z,101242.98
2018-07-20T22:10:47.302Z,101243.44
2018-07-20T22:13:15.698Z,101247.84
2018-07-20T22:15:44.094Z,101244.80
2018-07-20T22:18:12.527Z,101245.71
2018-07-20T22:20:40.914Z,101247.06
2018-07-20T22:23:09.342Z,101240.95
2018-07-20T22:25:37.750Z,101241.45
2018-07-20T22:28:06.130Z,101241.91
2018-07-20T22:30:34.539Z,101234.06
2018-07-20T22:33:02.927Z,101231.03
2018-07-20T22:35:31.322Z,101235.42
2018-07-20T22:37:59.706Z,101240.72
2018-07-20T22:40:28.102Z,101242.49
2018-07-20T22:42:56.479Z,101248.69
2018-07-20T22:45:24.876Z,101244.79
2018-07-20T22:47:56.190Z,101248.32
2018-07-20T22:50:24.594Z,101250.98
2018-07-20T22:52:52.974Z,101246.63
2018-07-20T22:55:21.374Z,101253.68
2018-07-20T22:57:49.751Z,101251.51
2018-07-20T23:00:18.146Z,101251.13
2018-07-20T23:02:46.525Z,101248.98
2018-07-20T23:05:14.926Z,101246.84
2018-07-20T23:07:43.298Z,101246.87
2018-07-20T23:10:11.888Z,101243.42
2018-07-20T23:12:40.266Z,101246.50
2018-07-20T23:15:08.674Z,101250.91
2018-07-20T23:17:37.074Z,101253.56
2018-07-20T23:20:05.610Z,101254.91
2018-07-20T23:22:33.992Z,101250.14
2018-07-20T23:25:02.386Z,101244.05
2018-07-20T23:27:30.762Z,101245.39
2018-07-20T23:29:59.162Z,101237.13
2018-07-20T23:32:27.537Z,101235.84
2018-07-20T23:34:55.939Z,101228.86
2018-07-20T23:37:24.357Z,101232.40
2018-07-20T23:39:52.753Z,101225.84
2018-07-20T23:42:21.136Z,101228.04
2018-07-20T23:44:49.542Z,101214.95
2018-07-20T23:47:17.925Z,101222.84
2018-07-20T23:49:46.335Z,101216.73
2018-07-20T23:52:14.714Z,101217.17
2018-07-20T23:54:43.366Z,101213.27
2018-07-20T23:57:11.738Z,101208.49
2018-07-20T23:59:40.175Z,101210.66
